Time;durP1;ratioP1;P1;durP2;ratioP2;P2;SDS_P1;SDS_P2;PMS_P1;PMS_P2;Temp;Humidity;BMP_temperature;BMP_pressure;BME280_temperature;BME280_humidity;BME280_pressure;Samples;Min_cycle;Max_cycle;Signal;HPM_P1;HPM_P2
2023/03/06 00:01:07;;;;;;;4.00;1.00;;;;;;;-128.00;-1.00;-1.00;102752;1256;1013256;-48
2023/03/06 00:03:35;;;;;;;6.00;1.60;;;;;;;-128.00;-1.00;-1.00;102788;1256;1013233;-47
2023/03/06 00:06:05;;;;;;;7.20;2.10;;;;;;;-128.00;-1.00;-1.00;102745;1256;1012776;-45
2023/03/06 00:08:33;;;;;;;5.40;1.40;;;;;;;-128.00;-1.00;-1.00;102849;1253;1010770;-47
2023/03/06 00:11:08;;;;;;;3.30;1.10;;;;;;;-128.00;-1.00;-1.00;102646;1256;1011161;-46
2023/03/06 00:13:37;;;;;;;5.70;1.90;;;;;;;-128.00;-1.00;-1.00;102621;1252;1003028;-47
2023/03/06 00:16:07;;;;;;;6.00;1.30;;;;;;;-128.00;-1.00;-1.00;103115;1256;1012998;-46
2023/03/06 00:18:35;;;;;;;3.50;1.00;;;;;;;-128.00;-1.00;-1.00;102661;1256;1004442;-47
2023/03/06 00:21:09;;;;;;;6.70;1.30;;;;;;;-128.00;-1.00;-1.00;102472;1256;1011401;-45
2023/03/06 00:23:40;;;;;;;3.40;1.10;;;;;;;-128.00;-1.00;-1.00;102612;1256;1011435;-45
2023/03/06 00:26:08;;;;;;;3.50;0.90;;;;;;;-128.00;-1.00;-1.00;102685;1253;1012211;-45
2023/03/06 00:28:38;;;;;;;3.80;0.80;;;;;;;-128.00;-1.00;-1.00;102803;1252;1012603;-46
2023/03/06 00:31:10;;;;;;;5.10;0.90;;;;;;;-128.00;-1.00;-1.00;102833;1256;1013189;-47
2023/03/06 00:33:42;;;;;;;2.20;0.90;;;;;;;-128.00;-1.00;-1.00;102685;1256;1010065;-45
2023/03/06 00:36:11;;;;;;;5.00;0.80;;;;;;;-128.00;-1.00;-1.00;102729;1256;1011072;-47
2023/03/06 00:38:40;;;;;;;3.50;0.80;;;;;;;-128.00;-1.00;-1.00;102372;1256;1013434;-44
2023/03/06 00:41:10;;;;;;;3.20;1.00;;;;;;;-128.00;-1.00;-1.00;103357;1256;1011726;-47
2023/03/06 00:43:39;;;;;;;6.70;1.00;;;;;;;-128.00;-1.00;-1.00;102710;1253;1013226;-45
2023/03/06 00:46:07;;;;;;;2.60;0.90;;;;;;;-128.00;-1.00;-1.00;103005;1253;1010138;-47
2023/03/06 00:48:37;;;;;;;2.60;0.80;;;;;;;-128.00;-1.00;-1.00;103277;1253;1011558;-45
2023/03/06 00:51:07;;;;;;;5.30;1.10;;;;;;;-128.00;-1.00;-1.00;102573;1256;1013071;-46
2023/03/06 00:53:34;;;;;;;2.70;0.80;;;;;;;-128.00;-1.00;-1.00;102576;1253;1002341;-43
2023/03/06 00:56:03;;;;;;;4.20;0.90;;;;;;;-128.00;-1.00;-1.00;102499;1253;1003514;-46
2023/03/06 00:58:33;;;;;;;4.90;0.80;;;;;;;-128.00;-1.00;-1.00;102650;1253;1010297;-44
2023/03/06 01:01:01;;;;;;;2.10;0.80;;;;;;;-128.00;-1.00;-1.00;102572;1256;1002375;-44
2023/03/06 01:03:30;;;;;;;1.90;0.70;;;;;;;-128.00;-1.00;-1.00;102532;1256;1013457;-46
2023/03/06 01:05:59;;;;;;;3.10;0.90;;;;;;;-128.00;-1.00;-1.00;103218;1253;1012526;-46
2023/03/06 01:08:30;;;;;;;4.80;0.80;;;;;;;-128.00;-1.00;-1.00;102637;1256;1013211;-46
2023/03/06 01:10:59;;;;;;;7.40;0.80;;;;;;;-128.00;-1.00;-1.00;103348;1256;1010516;-48
2023/03/06 01:13:27;;;;;;;4.10;1.00;;;;;;;-128.00;-1.00;-1.00;102930;1256;1003197;-45
2023/03/06 01:16:05;;;;;;;4.20;0.80;;;;;;;-128.00;-1.00;-1.00;102647;1253;1013487;-47
2023/03/06 01:18:34;;;;;;;2.30;0.70;;;;;;;-128.00;-1.00;-1.00;102846;1253;1011948;-46
2023/03/06 01:21:03;;;;;;;1.70;0.60;;;;;;;-128.00;-1.00;-1.00;102974;1253;1012774;-47
2023/03/06 01:23:31;;;;;;;3.50;0.80;;;;;;;-128.00;-1.00;-1.00;102483;1253;1013585;-47
2023/03/06 01:25:59;;;;;;;2.10;0.60;;;;;;;-128.00;-1.00;-1.00;102585;1252;1002205;-47
2023/03/06 01:28:27;;;;;;;2.40;0.60;;;;;;;-128.00;-1.00;-1.00;102579;1253;1002805;-46
2023/03/06 01:30:55;;;;;;;2.50;0.70;;;;;;;-128.00;-1.00;-1.00;103064;1253;1002756;-47
2023/03/06 01:33:24;;;;;;;2.80;0.80;;;;;;;-128.00;-1.00;-1.00;103017;1257;1013128;-46
2023/03/06 01:35:52;;;;;;;1.30;0.60;;;;;;;-128.00;-1.00;-1.00;102488;1252;1002601;-47
2023/03/06 01:38:20;;;;;;;1.00;0.60;;;;;;;-128.00;-1.00;-1.00;102539;1256;1002958;-47
2023/03/06 01:40:48;;;;;;;2.60;0.60;;;;;;;-128.00;-1.00;-1.00;103291;1255;1012585;-46
2023/03/06 01:43:29;;;;;;;1.90;0.60;;;;;;;-128.00;-1.00;-1.00;102895;1255;1004114;-46
2023/03/06 01:46:16;;;;;;;3.20;0.70;;;;;;;-128.00;-1.00;-1.00;103057;1256;1012184;-45
2023/03/06 01:48:44;;;;;;;2.80;0.80;;;;;;;-128.00;-1.00;-1.00;102698;1254;1010957;-45
2023/03/06 01:51:13;;;;;;;3.00;0.70;;;;;;;-128.00;-1.00;-1.00;102632;1257;1010290;-47
2023/03/06 01:53:42;;;;;;;1.70;0.80;;;;;;;-128.00;-1.00;-1.00;102664;1252;1013000;-47
2023/03/06 01:56:10;;;;;;;3.60;1.00;;;;;;;-128.00;-1.00;-1.00;103011;1255;1012413;-47
2023/03/06 01:58:38;;;;;;;5.30;0.70;;;;;;;-128.00;-1.00;-1.00;102561;1256;1002483;-46
2023/03/06 02:01:06;;;;;;;2.00;0.70;;;;;;;-128.00;-1.00;-1.00;102666;1255;1009808;-47
2023/03/06 02:03:34;;;;;;;4.40;1.10;;;;;;;-128.00;-1.00;-1.00;102852;1251;1002675;-48
2023/03/06 02:06:04;;;;;;;2.80;0.80;;;;;;;-128.00;-1.00;-1.00;102559;1252;1013246;-49
2023/03/06 02:08:46;;;;;;;3.80;1.00;;;;;;;-128.00;-1.00;-1.00;102804;1255;1013066;-48
2023/03/06 02:11:19;;;;;;;2.90;0.80;;;;;;;-128.00;-1.00;-1.00;102618;1255;1012939;-47
2023/03/06 02:13:48;;;;;;;2.60;0.80;;;;;;;-128.00;-1.00;-1.00;103124;1253;1010419;-48
2023/03/06 02:16:20;;;;;;;2.20;0.80;;;;;;;-128.00;-1.00;-1.00;102703;1256;1010781;-46
2023/03/06 02:18:50;;;;;;;1.50;0.80;;;;;;;-128.00;-1.00;-1.00;102957;1253;1013544;-48
2023/03/06 02:21:27;;;;;;;2.60;0.80;;;;;;;-128.00;-1.00;-1.00;102495;1258;1013154;-49
2023/03/06 02:23:58;;;;;;;1.60;0.80;;;;;;;-128.00;-1.00;-1.00;102464;1255;1012402;-49
2023/03/06 02:26:26;;;;;;;2.60;0.80;;;;;;;-128.00;-1.00;-1.00;103186;1256;1010606;-49
2023/03/06 02:28:57;;;;;;;1.60;0.80;;;;;;;-128.00;-1.00;-1.00;102762;1252;1010529;-44
2023/03/06 02:31:27;;;;;;;1.80;0.70;;;;;;;-128.00;-1.00;-1.00;102667;1253;1013369;-45
2023/03/06 02:34:15;;;;;;;1.00;0.60;;;;;;;-128.00;-1.00;-1.00;102860;1252;1013614;-45
2023/03/06 02:36:51;;;;;;;3.20;0.80;;;;;;;-128.00;-1.00;-1.00;102724;1253;1016390;-42
2023/03/06 02:39:22;;;;;;;2.50;0.90;;;;;;;-128.00;-1.00;-1.00;102726;1253;1010133;-46
2023/03/06 02:41:50;;;;;;;2.50;0.70;;;;;;;-128.00;-1.00;-1.00;102594;1256;1011439;-47
2023/03/06 02:44:19;;;;;;;4.80;0.80;;;;;;;-128.00;-1.00;-1.00;103201;1253;1013825;-45
2023/03/06 02:46:47;;;;;;;4.90;0.80;;;;;;;-128.00;-1.00;-1.00;102950;1256;1012098;-46
2023/03/06 02:49:19;;;;;;;2.90;0.90;;;;;;;-128.00;-1.00;-1.00;102533;1253;1013222;-43
2023/03/06 02:51:49;;;;;;;4.60;1.10;;;;;;;-128.00;-1.00;-1.00;102394;1258;1010479;-46
2023/03/06 02:54:18;;;;;;;3.60;1.10;;;;;;;-128.00;-1.00;-1.00;102784;1253;1011201;-44
2023/03/06 02:56:46;;;;;;;2.90;0.80;;;;;;;-128.00;-1.00;-1.00;102702;1255;1002589;-45
2023/03/06 02:59:14;;;;;;;3.10;0.80;;;;;;;-128.00;-1.00;-1.00;103032;1255;1012855;-47
2023/03/06 03:01:46;;;;;;;2.50;1.00;;;;;;;-128.00;-1.00;-1.00;102920;1255;1012458;-49
2023/03/06 03:04:14;;;;;;;2.20;0.60;;;;;;;-128.00;-1.00;-1.00;102470;1253;1012706;-42
2023/03/06 03:06:43;;;;;;;1.70;0.80;;;;;;;-128.00;-1.00;-1.00;103088;1253;1012047;-45
2023/03/06 03:09:11;;;;;;;4.30;0.90;;;;;;;-128.00;-1.00;-1.00;102673;1255;1002814;-45
2023/03/06 03:11:43;;;;;;;2.10;0.70;;;;;;;-128.00;-1.00;-1.00;102480;1255;1012153;-48
2023/03/06 03:14:11;;;;;;;1.70;0.80;;;;;;;-128.00;-1.00;-1.00;102949;1253;1013503;-44
2023/03/06 03:16:39;;;;;;;2.30;0.70;;;;;;;-128.00;-1.00;-1.00;102431;1255;1011139;-44
2023/03/06 03:19:08;;;;;;;3.00;0.80;;;;;;;-128.00;-1.00;-1.00;102552;1255;1011005;-44
2023/03/06 03:21:39;;;;;;;3.60;0.90;;;;;;;-128.00;-1.00;-1.00;102815;1256;1012335;-46
2023/03/06 03:24:07;;;;;;;3.40;1.00;;;;;;;-128.00;-1.00;-1.00;102605;1256;1012731;-48
2023/03/06 03:26:36;;;;;;;4.10;0.90;;;;;;;-128.00;-1.00;-1.00;102959;1253;1012497;-46
2023/03/06 03:29:09;;;;;;;4.90;0.90;;;;;;;-128.00;-1.00;-1.00;103641;1255;1009719;-45
2023/03/06 03:31:38;;;;;;;3.10;0.80;;;;;;;-128.00;-1.00;-1.00;102484;1256;1010886;-45
2023/03/06 03:34:07;;;;;;;1.40;0.80;;;;;;;-128.00;-1.00;-1.00;102785;1254;1002624;-48
2023/03/06 03:36:37;;;;;;;1.50;0.80;;;;;;;-128.00;-1.00;-1.00;102435;1257;1012975;-47
2023/03/06 03:39:09;;;;;;;1.90;1.00;;;;;;;-128.00;-1.00;-1.00;102467;1255;1013399;-46
2023/03/06 03:41:37;;;;;;;3.40;0.90;;;;;;;-128.00;-1.00;-1.00;104636;1253;1010357;-44
2023/03/06 03:44:07;;;;;;;3.60;1.00;;;;;;;-128.00;-1.00;-1.00;102281;1258;1011805;-45
2023/03/06 03:46:35;;;;;;;4.30;0.90;;;;;;;-128.00;-1.00;-1.00;103248;1253;1012716;-47
2023/03/06 03:49:05;;;;;;;1.50;0.80;;;;;;;-128.00;-1.00;-1.00;102620;1251;1013069;-48
2023/03/06 03:51:33;;;;;;;3.00;1.10;;;;;;;-128.00;-1.00;-1.00;103289;1257;1012777;-46
2023/03/06 03:54:02;;;;;;;1.80;0.70;;;;;;;-128.00;-1.00;-1.00;102675;1255;1010552;-48
2023/03/06 03:56:34;;;;;;;3.00;1.00;;;;;;;-128.00;-1.00;-1.00;102945;1255;1010806;-44
2023/03/06 03:59:08;;;;;;;2.10;0.60;;;;;;;-128.00;-1.00;-1.00;102699;1253;1012170;-45
2023/03/06 04:01:43;;;;;;;1.70;0.90;;;;;;;-128.00;-1.00;-1.00;102723;1255;1012795;-46
2023/03/06 04:04:12;;;;;;;3.20;0.90;;;;;;;-128.00;-1.00;-1.00;102474;1256;1013400;-46
2023/03/06 04:06:43;;;;;;;3.40;1.00;;;;;;;-128.00;-1.00;-1.00;102851;1253;1010266;-46
2023/03/06 04:09:11;;;;;;;2.50;0.80;;;;;;;-128.00;-1.00;-1.00;102562;1256;1002802;-45
2023/03/06 04:11:39;;;;;;;3.10;1.20;;;;;;;-128.00;-1.00;-1.00;102497;1252;1012867;-44
2023/03/06 04:14:10;;;;;;;4.10;0.90;;;;;;;-128.00;-1.00;-1.00;102650;1253;1012498;-44
2023/03/06 04:16:39;;;;;;;3.20;1.10;;;;;;;-128.00;-1.00;-1.00;102722;1251;1012527;-46
2023/03/06 04:19:08;;;;;;;4.60;1.10;;;;;;;-128.00;-1.00;-1.00;102721;1256;1010264;-48
2023/03/06 04:21:37;;;;;;;3.20;1.20;;;;;;;-128.00;-1.00;-1.00;102593;1257;1010606;-46
2023/03/06 04:24:06;;;;;;;2.40;1.20;;;;;;;-128.00;-1.00;-1.00;102986;1256;1012964;-45
2023/03/06 04:26:35;;;;;;;4.00;1.10;;;;;;;-128.00;-1.00;-1.00;103256;1251;1012657;-44
2023/03/06 04:29:04;;;;;;;2.00;0.90;;;;;;;-128.00;-1.00;-1.00;103067;1255;1012195;-45
2023/03/06 04:31:34;;;;;;;2.40;0.80;;;;;;;-128.00;-1.00;-1.00;103071;1256;1009397;-47
2023/03/06 04:34:02;;;;;;;2.00;0.90;;;;;;;-128.00;-1.00;-1.00;102512;1255;1011276;-45
2023/03/06 04:36:32;;;;;;;3.90;0.80;;;;;;;-128.00;-1.00;-1.00;102454;1257;1015217;-44
2023/03/06 04:39:04;;;;;;;3.20;1.00;;;;;;;-128.00;-1.00;-1.00;102386;1257;1013724;-46
2023/03/06 04:41:33;;;;;;;1.60;0.70;;;;;;;-128.00;-1.00;-1.00;102542;1253;1017273;-44
2023/03/06 04:44:01;;;;;;;1.90;0.80;;;;;;;-128.00;-1.00;-1.00;102840;1252;1009901;-45
2023/03/06 04:46:30;;;;;;;4.60;0.90;;;;;;;-128.00;-1.00;-1.00;102982;1253;1002676;-43
2023/03/06 04:48:58;;;;;;;1.90;0.90;;;;;;;-128.00;-1.00;-1.00;102691;1251;1002559;-46
2023/03/06 04:51:26;;;;;;;2.20;1.20;;;;;;;-128.00;-1.00;-1.00;102708;1252;1012058;-49
2023/03/06 04:53:54;;;;;;;3.40;1.10;;;;;;;-128.00;-1.00;-1.00;102802;1258;1003371;-48
2023/03/06 04:56:22;;;;;;;2.80;1.70;;;;;;;-128.00;-1.00;-1.00;102793;1253;1010134;-48
2023/03/06 04:58:50;;;;;;;5.50;1.40;;;;;;;-128.00;-1.00;-1.00;102773;1256;1003677;-47
2023/03/06 05:01:18;;;;;;;4.90;1.40;;;;;;;-128.00;-1.00;-1.00;102752;1255;1003930;-43
2023/03/06 05:03:46;;;;;;;4.20;1.30;;;;;;;-128.00;-1.00;-1.00;102785;1255;1012590;-45
2023/03/06 05:06:14;;;;;;;4.00;1.30;;;;;;;-128.00;-1.00;-1.00;102784;1251;1002549;-46
2023/03/06 05:08:42;;;;;;;3.60;1.60;;;;;;;-128.00;-1.00;-1.00;102955;1253;1011075;-48
2023/03/06 05:11:11;;;;;;;3.70;1.40;;;;;;;-128.00;-1.00;-1.00;102671;1255;1011423;-47
2023/03/06 05:13:40;;;;;;;4.90;1.70;;;;;;;-128.00;-1.00;-1.00;102280;1253;1013656;-46
2023/03/06 05:16:09;;;;;;;3.10;1.70;;;;;;;-128.00;-1.00;-1.00;104578;1253;1012235;-46
2023/03/06 05:19:57;;;;;;;6.50;1.60;;;;;;;-0.34;100.00;98637.81;102051;1291;603228;-44
2023/03/06 05:22:25;;;;;;;3.30;2.20;;;;;;;-0.35;100.00;98644.36;104011;1266;59353;-48
2023/03/06 05:24:53;;;;;;;4.40;1.60;;;;;;;-0.30;100.00;98644.95;104661;1267;62750;-47
2023/03/06 05:27:21;;;;;;;7.60;1.90;;;;;;;-0.27;100.00;98647.54;104037;1266;73355;-47
2023/03/06 05:29:50;;;;;;;5.90;2.50;;;;;;;-0.27;100.00;98651.23;104380;1268;69200;-46
2023/03/06 05:32:25;;;;;;;5.60;2.50;;;;;;;-0.28;100.00;98651.27;104017;1266;180554;-49
2023/03/06 05:34:53;;;;;;;7.40;2.10;;;;;;;-0.30;100.00;98651.47;104433;1263;59165;-45
2023/03/06 05:37:24;;;;;;;6.80;2.30;;;;;;;-0.32;100.00;98650.09;104535;1263;60502;-46
2023/03/06 05:39:52;;;;;;;7.00;3.30;;;;;;;-0.34;100.00;98653.14;105312;1266;73947;-44
2023/03/06 05:42:20;;;;;;;4.60;1.60;;;;;;;-0.35;100.00;98654.77;104428;1264;68164;-44
2023/03/06 05:44:48;;;;;;;4.60;1.80;;;;;;;-0.37;100.00;98646.87;105302;1263;72748;-45
2023/03/06 05:47:16;;;;;;;5.00;1.80;;;;;;;-0.39;100.00;98647.77;104520;1263;60891;-44
2023/03/06 05:49:44;;;;;;;4.40;1.90;;;;;;;-0.37;100.00;98647.92;104546;1263;61948;-45
2023/03/06 05:52:12;;;;;;;6.60;1.70;;;;;;;-0.35;100.00;98652.46;104554;1265;72027;-45
2023/03/06 05:54:40;;;;;;;4.00;1.90;;;;;;;-0.31;100.00;98660.64;105054;1253;66995;-48
2023/03/06 05:57:08;;;;;;;2.90;1.50;;;;;;;-0.24;100.00;98665.09;105107;1254;72490;-46
2023/03/06 05:59:36;;;;;;;5.60;2.00;;;;;;;-0.19;100.00;98671.48;108125;1253;60727;-47
2023/03/06 06:02:04;;;;;;;6.20;2.10;;;;;;;-0.15;100.00;98678.45;105083;1253;61020;-46
2023/03/06 06:04:33;;;;;;;11.20;2.60;;;;;;;-0.14;100.00;98685.47;105852;1253;73546;-48
2023/03/06 06:07:02;;;;;;;5.80;2.40;;;;;;;-0.16;100.00;98688.67;107580;1253;69463;-44
2023/03/06 06:09:30;;;;;;;4.30;2.70;;;;;;;-0.19;100.00;98689.48;105852;1256;71613;-45
2023/03/06 06:12:00;;;;;;;5.60;3.00;;;;;;;-0.22;100.00;98692.88;105103;1257;61164;-47
2023/03/06 06:14:32;;;;;;;5.00;2.50;;;;;;;-0.26;100.00;98697.55;105191;1259;59793;-45
2023/03/06 06:17:02;;;;;;;4.80;1.70;;;;;;;-0.24;100.00;98691.70;108954;1253;73620;-48
2023/03/06 06:19:30;;;;;;;5.30;2.10;;;;;;;-0.20;100.00;98693.55;108881;1254;67880;-48
2023/03/06 06:22:01;;;;;;;3.10;1.50;;;;;;;-0.14;100.00;98697.12;105166;1254;71067;-45
2023/03/06 06:24:30;;;;;;;4.00;1.50;;;;;;;-0.09;100.00;98700.88;104994;1254;59669;-47
2023/03/06 06:26:58;;;;;;;2.60;1.50;;;;;;;-0.02;100.00;98705.67;104778;1257;59615;-47
2023/03/06 06:29:31;;;;;;;3.20;1.60;;;;;;;0.05;100.00;98706.39;104817;1253;72601;-46
2023/03/06 06:32:00;;;;;;;4.50;2.10;;;;;;;0.11;100.00;98708.37;105338;1257;67527;-46
2023/03/06 06:34:30;;;;;;;4.60;1.90;;;;;;;0.14;100.00;98709.89;105003;1254;71705;-46
2023/03/06 06:36:59;;;;;;;4.10;2.20;;;;;;;0.16;100.00;98711.09;104671;1254;59724;-47
2023/03/06 06:39:27;;;;;;;5.00;2.60;;;;;;;0.17;100.00;98705.92;104853;1257;59617;-46
2023/03/06 06:41:55;;;;;;;6.10;2.90;;;;;;;0.18;100.00;98712.77;104654;1254;74017;-47
2023/03/06 06:44:44;;;;;;;4.70;2.70;;;;;;;0.21;100.00;98713.95;104801;1254;66554;-50
2023/03/06 06:47:12;;;;;;;5.50;2.90;;;;;;;0.24;100.00;98713.90;108992;1254;71313;-49
2023/03/06 06:49:52;;;;;;;4.70;1.80;;;;;;;0.31;100.00;98720.61;107443;1254;59338;-48
2023/03/06 06:52:23;;;;;;;4.60;2.00;;;;;;;0.38;100.00;98723.61;104857;1254;60822;-48
2023/03/06 06:54:51;;;;;;;3.20;2.00;;;;;;;0.48;100.00;98724.26;105262;1253;72391;-49
2023/03/06 06:57:19;;;;;;;3.60;1.80;;;;;;;0.58;100.00;98727.71;105121;1254;67648;-48
2023/03/06 06:59:47;;;;;;;5.80;2.30;;;;;;;0.64;100.00;98729.15;105542;1254;72751;-48
2023/03/06 07:02:18;;;;;;;3.10;1.80;;;;;;;0.65;100.00;98736.36;105440;1257;59946;-49
2023/03/06 07:04:46;;;;;;;4.30;1.70;;;;;;;0.65;100.00;98736.20;105047;1254;59952;-46
2023/03/06 07:07:35;;;;;;;3.20;1.20;;;;;;;0.61;100.00;98744.77;105288;1254;72792;-49
2023/03/06 07:10:05;;;;;;;2.60;1.30;;;;;;;0.55;100.00;98746.33;105684;1254;67142;-49
2023/03/06 07:12:34;;;;;;;3.60;1.60;;;;;;;0.51;100.00;98746.80;108979;1253;72952;-48
2023/03/06 07:15:04;;;;;;;3.80;1.40;;;;;;;0.47;100.00;98750.92;106465;1254;59656;-46
2023/03/06 07:17:33;;;;;;;4.80;1.50;;;;;;;0.46;100.00;98755.72;104821;1254;59552;-48
2023/03/06 07:20:04;;;;;;;1.90;1.00;;;;;;;0.43;100.00;98760.19;105001;1254;70793;-46
2023/03/06 07:22:33;;;;;;;3.50;1.20;;;;;;;0.39;100.00;98766.84;105228;1256;65991;-50
2023/03/06 07:25:17;;;;;;;1.80;1.00;;;;;;;0.34;100.00;98769.41;105194;1254;74303;-47
2023/03/06 07:27:46;;;;;;;4.00;1.20;;;;;;;0.32;100.00;98774.58;105353;1256;61190;-50
2023/03/06 07:30:21;;;;;;;2.40;1.10;;;;;;;0.32;100.00;98776.00;104525;1257;60087;-48
2023/03/06 07:32:56;;;;;;;3.50;1.50;;;;;;;0.34;100.00;98775.59;104664;1254;72846;-47
2023/03/06 07:35:24;;;;;;;4.00;1.00;;;;;;;0.37;100.00;98778.16;105249;1254;68765;-48
2023/03/06 07:37:52;;;;;;;2.90;1.20;;;;;;;0.40;100.00;98783.41;106081;1253;73949;-48
2023/03/06 07:40:22;;;;;;;4.90;1.80;;;;;;;0.37;100.00;98781.50;105082;1256;60611;-47
2023/03/06 07:42:54;;;;;;;3.90;1.30;;;;;;;0.34;100.00;98785.98;105599;1253;60416;-47
2023/03/06 07:45:32;;;;;;;5.10;1.90;;;;;;;0.34;100.00;98788.83;105505;1254;73762;-45
2023/03/06 07:48:00;;;;;;;3.40;1.40;;;;;;;0.37;100.00;98788.05;105379;1253;67600;-45
2023/03/06 07:50:32;;;;;;;3.80;1.50;;;;;;;0.37;100.00;98788.04;106393;1253;71985;-47
2023/03/06 07:52:59;;;;;;;4.80;1.20;;;;;;;0.36;100.00;98790.19;105325;1254;60662;-50
2023/03/06 07:55:27;;;;;;;3.60;1.00;;;;;;;0.35;100.00;98793.20;105142;1254;60640;-51
2023/03/06 07:57:56;;;;;;;4.20;1.10;;;;;;;0.36;100.00;98793.19;105698;1253;73565;-50
2023/03/06 08:00:24;;;;;;;1.70;1.00;;;;;;;0.38;100.00;98788.91;104964;1254;69664;-49
2023/03/06 08:02:52;;;;;;;1.80;0.80;;;;;;;0.43;100.00;98792.15;105048;1254;73928;-48
2023/03/06 08:05:20;;;;;;;1.30;0.90;;;;;;;0.51;100.00;98792.66;105025;1254;60197;-50
2023/03/06 08:07:48;;;;;;;1.60;0.80;;;;;;;0.59;100.00;98794.44;105379;1256;59779;-49
2023/03/06 08:10:17;;;;;;;1.20;0.80;;;;;;;0.67;100.00;98791.23;104942;1254;74234;-47
2023/03/06 08:12:46;;;;;;;2.40;1.00;;;;;;;0.75;100.00;98793.52;105159;1256;67012;-50
2023/03/06 08:15:14;;;;;;;5.30;1.00;;;;;;;0.79;100.00;98792.17;104991;1258;71213;-49
2023/03/06 08:17:51;;;;;;;2.90;1.10;;;;;;;0.82;100.00;98796.70;105131;1253;59723;-49
2023/03/06 08:20:19;;;;;;;3.50;1.20;;;;;;;0.85;100.00;98797.16;105160;1256;60872;-51
2023/03/06 08:22:47;;;;;;;3.80;1.50;;;;;;;0.88;100.00;98801.84;105208;1253;71952;-47
2023/03/06 08:25:16;;;;;;;3.60;1.90;;;;;;;0.89;100.00;98802.88;105116;1253;68212;-47
2023/03/06 08:27:46;;;;;;;4.50;1.80;;;;;;;0.90;100.00;98798.45;105315;1254;72066;-47
2023/03/06 08:30:14;;;;;;;4.70;1.50;;;;;;;0.92;100.00;98801.05;105254;1254;59749;-49
2023/03/06 08:32:43;;;;;;;3.00;1.70;;;;;;;0.97;100.00;98803.20;105204;1254;59735;-48
2023/03/06 08:35:11;;;;;;;1.70;1.00;;;;;;;1.00;100.00;98802.63;105745;1254;72672;-45
2023/03/06 08:37:41;;;;;;;3.10;0.90;;;;;;;1.01;100.00;98802.94;104757;1256;68280;-47
2023/03/06 08:40:10;;;;;;;2.00;0.80;;;;;;;1.01;100.00;98803.64;105234;1254;72940;-48
2023/03/06 08:42:43;;;;;;;1.80;0.80;;;;;;;1.04;100.00;98807.09;104690;1257;59826;-47
2023/03/06 08:45:11;;;;;;;1.90;0.80;;;;;;;1.09;100.00;98811.40;104957;1254;59834;-49
2023/03/06 08:47:39;;;;;;;1.40;0.70;;;;;;;1.12;100.00;98809.70;105247;1256;73846;-49
2023/03/06 08:50:09;;;;;;;1.90;0.70;;;;;;;1.13;100.00;98816.40;105299;1257;69284;-47
2023/03/06 08:52:37;;;;;;;1.00;0.60;;;;;;;1.09;100.00;98818.64;106062;1257;72258;-48
2023/03/06 08:55:06;;;;;;;1.40;0.70;;;;;;;1.06;100.00;98825.06;105179;1254;60927;-49
2023/03/06 08:57:34;;;;;;;2.80;0.70;;;;;;;1.04;100.00;98823.85;105426;1254;59983;-48
2023/03/06 09:00:07;;;;;;;1.60;0.90;;;;;;;1.00;100.00;98824.33;105449;1254;71737;-50
2023/03/06 09:02:35;;;;;;;1.80;0.80;;;;;;;1.00;100.00;98827.35;104674;1258;68086;-50
2023/03/06 09:05:06;;;;;;;1.10;0.80;;;;;;;0.97;100.00;98835.17;105204;1254;72176;-50
2023/03/06 09:07:34;;;;;;;5.20;0.80;;;;;;;0.95;100.00;98837.71;104889;1253;60300;-48
2023/03/06 09:10:04;;;;;;;2.40;0.90;;;;;;;0.88;100.00;98844.59;105166;1254;60904;-50
2023/03/06 09:12:33;;;;;;;2.40;0.90;;;;;;;0.81;100.00;98846.34;104927;1254;73735;-49
2023/03/06 09:15:16;;;;;;;1.20;0.70;;;;;;;0.79;100.00;98844.64;105347;1254;69324;-49
2023/03/06 09:17:46;;;;;;;1.50;0.70;;;;;;;0.79;100.00;98842.33;104976;1254;73713;-49
2023/03/06 09:20:16;;;;;;;1.50;1.10;;;;;;;0.83;100.00;98846.67;105007;1256;60637;-48
2023/03/06 09:22:44;;;;;;;2.30;0.70;;;;;;;0.87;100.00;98852.90;105099;1254;60379;-49
2023/03/06 09:25:13;;;;;;;2.50;0.80;;;;;;;0.94;100.00;98846.38;104912;1256;75180;-48
2023/03/06 09:27:41;;;;;;;3.80;0.70;;;;;;;0.99;100.00;98843.27;109191;1252;66002;-48
2023/03/06 09:30:10;;;;;;;2.70;0.90;;;;;;;1.06;100.00;98843.45;105087;1253;73178;-47
2023/03/06 09:32:39;;;;;;;2.00;0.80;;;;;;;1.18;100.00;98838.38;105016;1256;60370;-49
2023/03/06 09:35:08;;;;;;;2.70;0.90;;;;;;;1.35;100.00;98835.45;105117;1256;60382;-49
2023/03/06 09:37:36;;;;;;;4.70;0.70;;;;;;;1.53;100.00;98839.07;105812;1253;75019;-48
2023/03/06 09:40:05;;;;;;;2.00;0.70;;;;;;;1.66;100.00;98841.01;105034;1256;67485;-49
2023/03/06 09:42:36;;;;;;;2.10;0.80;;;;;;;1.67;100.00;98838.85;105140;1254;71785;-49
2023/03/06 09:45:05;;;;;;;1.80;0.90;;;;;;;1.65;100.00;98842.98;105210;1254;60763;-48
2023/03/06 09:47:42;;;;;;;1.40;0.70;;;;;;;1.64;100.00;98850.25;105672;1256;61505;-49
2023/03/06 09:50:31;;;;;;;3.40;1.20;;;;;;;1.58;100.00;98848.30;105075;1254;72762;-50
2023/03/06 09:53:32;;;;;;;1.60;0.90;;;;;;;1.48;100.00;98850.33;105175;1256;66622;-49
2023/03/06 09:56:13;;;;;;;1.30;0.70;;;;;;;1.39;100.00;98852.68;105052;1254;72927;-47
2023/03/06 09:59:12;;;;;;;0.70;0.50;;;;;;;1.32;100.00;98849.86;105202;1257;61000;-50
2023/03/06 10:01:41;;;;;;;1.40;0.70;;;;;;;1.35;100.00;98842.02;104636;1254;61552;-51
2023/03/06 10:04:18;;;;;;;0.90;0.70;;;;;;;1.42;100.00;98843.76;104885;1256;74695;-48
2023/03/06 10:06:49;;;;;;;1.40;0.70;;;;;;;1.49;100.00;98842.16;104878;1256;68870;-48
2023/03/06 10:09:19;;;;;;;1.70;0.60;;;;;;;1.56;100.00;98844.65;105141;1254;70279;-51
2023/03/06 10:11:56;;;;;;;2.60;0.60;;;;;;;1.60;100.00;98844.20;105138;1254;60438;-48
2023/03/06 10:14:39;;;;;;;2.40;0.50;;;;;;;1.58;100.00;98845.12;104913;1260;61583;-49
2023/03/06 10:17:13;;;;;;;1.50;0.60;;;;;;;1.51;100.00;98848.84;104928;1257;73045;-49
2023/03/06 10:19:41;;;;;;;1.90;0.60;;;;;;;1.41;100.00;98850.14;104846;1254;67267;-49
2023/03/06 10:22:30;;;;;;;1.10;0.60;;;;;;;1.35;100.00;98852.27;104820;1254;73478;-50
2023/03/06 10:25:05;;;;;;;1.20;0.50;;;;;;;1.32;100.00;98850.91;105393;1256;60716;-48
2023/03/06 10:27:46;;;;;;;1.20;0.50;;;;;;;1.36;100.00;98848.16;106103;1254;61404;-49
2023/03/06 10:30:57;;;;;;;3.20;0.60;;;;;;;1.41;100.00;98848.38;104884;1256;74665;-46
2023/03/06 10:33:46;;;;;;;1.30;0.50;;;;;;;1.44;100.00;98848.50;104935;1254;69492;-49
2023/03/06 10:36:15;;;;;;;1.30;0.40;;;;;;;1.40;100.00;98847.52;105062;1254;72417;-47
2023/03/06 10:38:44;;;;;;;1.30;0.50;;;;;;;1.43;100.00;98843.22;107510;1256;60527;-48
2023/03/06 10:41:12;;;;;;;0.70;0.40;;;;;;;1.51;100.00;98839.27;105293;1254;60539;-49
2023/03/06 10:43:42;;;;;;;0.60;0.40;;;;;;;1.59;100.00;98837.67;105055;1256;73736;-47
2023/03/06 10:46:13;;;;;;;1.80;0.40;;;;;;;1.63;100.00;98829.78;105370;1256;69019;-49
2023/03/06 10:48:42;;;;;;;0.80;0.40;;;;;;;1.70;100.00;98827.47;104985;1259;72942;-48
2023/03/06 10:51:21;;;;;;;0.80;0.60;;;;;;;1.78;100.00;98832.17;104727;1254;60619;-46
2023/03/06 10:53:55;;;;;;;0.70;0.30;;;;;;;1.88;100.00;98830.31;105021;1256;60533;-49
2023/03/06 10:56:43;;;;;;;0.60;0.40;;;;;;;1.98;100.00;98825.25;105266;1253;73005;-48
2023/03/06 10:59:12;;;;;;;0.40;0.20;;;;;;;2.08;100.00;98824.77;105259;1256;67760;-48
2023/03/06 11:01:47;;;;;;;0.60;0.30;;;;;;;2.21;100.00;98819.61;105328;1254;73565;-48
2023/03/06 11:04:26;;;;;;;0.80;0.30;;;;;;;2.35;100.00;98820.80;105224;1258;60578;-50
2023/03/06 11:07:22;;;;;;;0.50;0.30;;;;;;;2.46;100.00;98822.25;105313;1254;61765;-50
2023/03/06 11:09:58;;;;;;;0.60;0.30;;;;;;;2.52;100.00;98818.52;105203;1254;73763;-50
2023/03/06 11:12:34;;;;;;;1.90;0.30;;;;;;;2.51;100.00;98819.96;106146;1254;65479;-48
2023/03/06 11:15:05;;;;;;;0.60;0.40;;;;;;;2.50;100.00;98817.86;105213;1254;72942;-50
2023/03/06 11:17:36;;;;;;;0.60;0.20;;;;;;;2.52;100.00;98818.52;105117;1256;60614;-49
2023/03/06 11:20:13;;;;;;;0.50;0.20;;;;;;;2.54;100.00;98820.77;106645;1253;60507;-51
2023/03/06 11:23:02;;;;;;;0.90;0.20;;;;;;;2.58;100.00;98818.84;105102;1256;75042;-46
2023/03/06 11:25:36;;;;;;;1.30;0.40;;;;;;;2.62;100.00;98816.61;104855;1259;67177;-50
2023/03/06 11:28:27;;;;;;;0.80;0.30;;;;;;;2.65;100.00;98815.95;105277;1259;74218;-52
2023/03/06 11:31:09;;;;;;;0.50;0.30;;;;;;;2.71;100.00;98817.93;104715;1257;61084;-48
2023/03/06 11:33:41;;;;;;;1.90;0.20;;;;;;;2.66;100.00;98817.70;105439;1254;61479;-49
2023/03/06 11:36:13;;;;;;;0.90;0.30;;;;;;;2.60;100.00;98819.32;108158;1255;74522;-45
2023/03/06 11:38:47;;;;;;;1.00;0.30;;;;;;;2.55;100.00;98821.23;105556;1254;65936;-46
2023/03/06 11:41:24;;;;;;;0.80;0.30;;;;;;;2.52;100.00;98819.21;106286;1254;70454;-49